createdAt,value
2019-02-08T00:03:23.570Z,100884.35
2019-02-08T00:08:26.012Z,100884.27
2019-02-08T00:13:28.459Z,100890.67
2019-02-08T00:18:30.926Z,100894.70
2019-02-08T00:23:33.445Z,100896.34
2019-02-08T00:28:35.877Z,100901.33
2019-02-08T00:33:38.321Z,100901.40
2019-02-08T00:38:40.765Z,100904.34
2019-02-08T00:43:43.200Z,100903.46
2019-02-08T00:48:45.639Z,100909.23
2019-02-08T00:53:48.092Z,100913.70
2019-02-08T00:58:50.526Z,100915.61
2019-02-08T01:03:52.968Z,100921.36
2019-02-08T01:08:57.147Z,100910.58
2019-02-08T01:13:57.877Z,100898.27
2019-02-08T01:19:00.330Z,100906.19
2019-02-08T01:24:02.773Z,100901.45
2019-02-08T01:29:05.235Z,100917.22
2019-02-08T01:34:07.690Z,100923.60
2019-02-08T01:39:10.140Z,100916.33
2019-02-08T01:44:12.591Z,100924.10
2019-02-08T01:49:15.041Z,100922.56
2019-02-08T01:54:17.494Z,100918.43
2019-02-08T01:59:19.937Z,100909.70
2019-02-08T02:04:23.044Z,100912.19
2019-02-08T02:09:25.504Z,100921.02
2019-02-08T02:14:27.943Z,100914.38
2019-02-08T02:19:30.382Z,100910.44
2019-02-08T02:24:33.093Z,100909.87
2019-02-08T02:29:35.529Z,100909.17
2019-02-08T02:34:38.007Z,100903.25
2019-02-08T02:39:40.450Z,100915.05
2019-02-08T02:44:43.026Z,100915.23
2019-02-08T02:49:45.468Z,100911.25
2019-02-08T02:54:47.920Z,100905.10
2019-02-08T02:59:50.365Z,100908.45
2019-02-08T03:04:52.803Z,100897.38
2019-02-08T03:09:55.253Z,100901.11
2019-02-08T03:14:57.695Z,100902.16
2019-02-08T03:20:00.271Z,100899.22
2019-02-08T03:25:02.584Z,100899.62
2019-02-08T03:30:08.021Z,100899.77
2019-02-08T03:35:10.510Z,100899.94
2019-02-08T03:40:12.903Z,100905.14
2019-02-08T03:45:15.410Z,100908.09
2019-02-08T03:50:23.722Z,100904.16
2019-02-08T03:55:26.179Z,100900.81
2019-02-08T04:00:31.607Z,100901.77
2019-02-08T04:05:34.049Z,100903.53
2019-02-08T04:10:36.489Z,100892.05
2019-02-08T04:15:38.928Z,100894.58
2019-02-08T04:20:41.382Z,100906.33
2019-02-08T04:25:43.847Z,100898.64
2019-02-08T04:30:46.305Z,100903.26
2019-02-08T04:35:48.755Z,100906.31
2019-02-08T04:40:51.198Z,100911.61
2019-02-08T04:45:53.639Z,100910.95
2019-02-08T04:50:56.080Z,100903.72
2019-02-08T04:55:58.513Z,100907.41
2019-02-08T05:01:00.951Z,100902.63
2019-02-08T05:06:03.385Z,100898.61
2019-02-08T05:11:05.834Z,100891.86
2019-02-08T05:16:08.288Z,100908.23
2019-02-08T05:21:10.752Z,100905.31
2019-02-08T05:26:13.199Z,100905.61
2019-02-08T05:31:15.628Z,100905.67
2019-02-08T05:36:18.124Z,100904.21
2019-02-08T05:41:20.522Z,100910.94
2019-02-08T05:46:22.964Z,100906.91
2019-02-08T05:51:25.413Z,100903.98
2019-02-08T05:56:27.853Z,100903.72
2019-02-08T06:01:30.294Z,100907.44
2019-02-08T06:06:32.729Z,100908.42
2019-02-08T06:11:35.192Z,100905.78
2019-02-08T06:16:37.681Z,100901.98
2019-02-08T06:21:40.116Z,100901.33
2019-02-08T06:26:42.560Z,100897.27
2019-02-08T06:31:45.024Z,100901.41
2019-02-08T06:36:47.479Z,100897.23
2019-02-08T06:41:49.918Z,100895.52
2019-02-08T06:46:52.359Z,100910.11
2019-02-08T06:51:54.814Z,100914.14
2019-02-08T06:56:57.252Z,100908.37
2019-02-08T07:02:02.643Z,100912.86
2019-02-08T07:07:05.079Z,100913.28
2019-02-08T07:12:13.182Z,100915.22
2019-02-08T07:17:15.648Z,100912.53
2019-02-08T07:22:20.653Z,100919.25
2019-02-08T07:27:32.125Z,100922.26
2019-02-08T07:32:40.432Z,100918.81
2019-02-08T07:37:42.868Z,100910.03
2019-02-08T07:42:45.321Z,100918.28
2019-02-08T07:47:50.741Z,100916.52
2019-02-08T07:53:02.383Z,100917.59
2019-02-08T07:58:23.176Z,100926.23
2019-02-08T08:03:34.522Z,100922.72
2019-02-08T08:08:45.780Z,100933.74
2019-02-08T08:13:48.239Z,100936.87
2019-02-08T08:18:50.674Z,100937.12
2019-02-08T08:23:53.142Z,100922.96
2019-02-08T08:29:14.002Z,100926.60
2019-02-08T08:34:28.455Z,100920.39
2019-02-08T08:39:45.878Z,100916.09
2019-02-08T08:44:57.413Z,100911.14
2019-02-08T08:50:30.752Z,100904.27
2019-02-08T08:55:42.546Z,100895.45
2019-02-08T09:01:05.450Z,100890.84
2019-02-08T09:06:16.563Z,100886.77
2019-02-08T09:11:46.313Z,100897.92
2019-02-08T09:16:51.845Z,100893.86
2019-02-08T09:22:09.352Z,100900.66
2019-02-08T09:27:20.813Z,100894.19
2019-02-08T09:32:47.462Z,100895.56
2019-02-08T09:37:52.579Z,100885.38
2019-02-08T09:43:22.457Z,100881.20
2019-02-08T09:48:45.954Z,100883.84
2019-02-08T09:54:19.334Z,100883.59
2019-02-08T09:59:52.150Z,100887.59
2019-02-08T10:05:03.223Z,100877.66
2019-02-08T10:10:14.638Z,100882.73
2019-02-08T10:15:32.439Z,100875.95
2019-02-08T10:20:54.169Z,100861.20
2019-02-08T10:26:14.006Z,100853.53
2019-02-08T10:31:44.396Z,100855.05
2019-02-08T10:37:01.811Z,100843.70
2019-02-08T10:42:28.313Z,100838.78
2019-02-08T10:48:01.741Z,100828.34
2019-02-08T10:53:25.862Z,100828.62
2019-02-08T10:58:33.987Z,100819.74
2019-02-08T11:03:55.308Z,100823.70
2019-02-08T11:09:16.105Z,100811.05
2019-02-08T11:14:37.217Z,100812.27
2019-02-08T11:19:39.154Z,100811.13
2019-02-08T11:24:41.610Z,100805.38
2019-02-08T11:29:44.271Z,100791.50
2019-02-08T11:34:46.739Z,100773.13
2019-02-08T11:39:49.202Z,100764.76
2019-02-08T11:44:51.688Z,100752.13
2019-02-08T11:49:54.202Z,100739.85
2019-02-08T11:54:56.665Z,100738.52
2019-02-08T11:59:59.117Z,100726.89
2019-02-08T12:05:01.574Z,100714.41
2019-02-08T12:10:04.015Z,100707.20
2019-02-08T12:15:06.465Z,100698.42
2019-02-08T12:20:08.920Z,100689.20
2019-02-08T12:25:11.382Z,100681.13
2019-02-08T12:30:16.776Z,100692.13
2019-02-08T12:35:19.370Z,100681.39
2019-02-08T12:40:21.830Z,100679.36
2019-02-08T12:45:24.299Z,100680.16
2019-02-08T12:50:26.817Z,100668.41
2019-02-08T12:55:29.258Z,100659.27
2019-02-08T13:00:31.726Z,100655.45
2019-02-08T13:05:34.185Z,100645.72
2019-02-08T13:10:36.645Z,100638.52
2019-02-08T13:15:39.125Z,100619.02
2019-02-08T13:20:41.614Z,100612.09
2019-02-08T13:25:44.477Z,100601.28
2019-02-08T13:30:46.921Z,100603.63
2019-02-08T13:35:49.375Z,100588.78
2019-02-08T13:40:51.828Z,100587.27
2019-02-08T13:45:54.305Z,100582.81
2019-02-08T13:50:56.766Z,100582.02
2019-02-08T13:55:59.238Z,100575.87
2019-02-08T14:01:01.716Z,100570.98
2019-02-08T14:06:04.182Z,100576.41
2019-02-08T14:11:06.635Z,100571.81
2019-02-08T14:16:09.083Z,100571.88
2019-02-08T14:21:11.562Z,100561.33
2019-02-08T14:26:14.028Z,100557.59
2019-02-08T14:31:16.534Z,100548.83
2019-02-08T14:36:19.011Z,100544.20
2019-02-08T14:41:21.444Z,100530.55
2019-02-08T14:46:23.910Z,100517.34
2019-02-08T14:51:26.365Z,100512.70
2019-02-08T14:56:28.827Z,100506.22
2019-02-08T15:01:31.267Z,100508.17
2019-02-08T15:06:33.781Z,100508.11
2019-02-08T15:11:36.194Z,100497.69
2019-02-08T15:16:38.646Z,100488.80
2019-02-08T15:21:41.432Z,100474.70
2019-02-08T15:26:43.901Z,100481.67
2019-02-08T15:31:46.352Z,100477.52
2019-02-08T15:36:49.304Z,100475.70
2019-02-08T15:41:51.242Z,100471.73
2019-02-08T15:46:53.698Z,100472.67
2019-02-08T15:51:56.143Z,100464.27
2019-02-08T15:56:58.603Z,100455.27
2019-02-08T16:02:01.084Z,100456.42
2019-02-08T16:07:03.540Z,100458.72
2019-02-08T16:12:05.999Z,100457.81
2019-02-08T16:17:08.465Z,100460.53
2019-02-08T16:22:10.911Z,100455.36
2019-02-08T16:27:13.360Z,100444.20
2019-02-08T16:32:16.353Z,100441.11
2019-02-08T16:37:18.926Z,100429.64
2019-02-08T16:42:21.375Z,100434.52
2019-02-08T16:47:23.819Z,100432.50
2019-02-08T16:52:26.288Z,100427.50
2019-02-08T16:57:28.708Z,100419.80
2019-02-08T17:02:31.175Z,100418.24
2019-02-08T17:07:33.615Z,100416.33
2019-02-08T17:12:36.092Z,100409.66
2019-02-08T17:17:38.541Z,100406.94
2019-02-08T17:22:40.983Z,100401.60
2019-02-08T17:27:43.441Z,100385.87
2019-02-08T17:32:45.885Z,100380.26
2019-02-08T17:37:48.328Z,100370.47
2019-02-08T17:42:50.806Z,100362.78
2019-02-08T17:47:53.293Z,100370.95
2019-02-08T17:52:56.491Z,100372.52
2019-02-08T17:58:03.501Z,100354.81
2019-02-08T18:03:01.421Z,100359.75
2019-02-08T18:08:03.884Z,100357.42
2019-02-08T18:13:06.338Z,100353.95
2019-02-08T18:18:11.416Z,100357.45
2019-02-08T18:23:14.018Z,100345.79
2019-02-08T18:28:16.710Z,100346.16
2019-02-08T18:33:18.914Z,100345.34
2019-02-08T18:38:21.352Z,100335.67
2019-02-08T18:43:23.786Z,100329.97
2019-02-08T18:48:26.252Z,100331.39
2019-02-08T18:53:28.699Z,100318.53
2019-02-08T18:58:31.191Z,100309.27
2019-02-08T19:03:33.673Z,100302.59
2019-02-08T19:08:36.192Z,100299.81
2019-02-08T19:13:38.661Z,100293.44
2019-02-08T19:18:41.131Z,100295.63
2019-02-08T19:23:43.587Z,100285.05
2019-02-08T19:28:46.078Z,100270.40
2019-02-08T19:33:48.518Z,100268.78
2019-02-08T19:38:50.989Z,100265.56
2019-02-08T19:43:53.448Z,100265.21
2019-02-08T19:48:55.974Z,100248.01
2019-02-08T19:53:58.429Z,100243.17
2019-02-08T19:59:00.880Z,100229.77
2019-02-08T20:04:03.352Z,100229.86
2019-02-08T20:09:05.808Z,100222.95
2019-02-08T20:14:08.284Z,100217.50
2019-02-08T20:19:10.731Z,100215.17
2019-02-08T20:24:13.198Z,100210.57
2019-02-08T20:29:15.636Z,100216.42
2019-02-08T20:34:18.087Z,100195.95
2019-02-08T20:39:20.560Z,100188.46
2019-02-08T20:44:23.049Z,100181.67
2019-02-08T20:49:25.506Z,100173.64
2019-02-08T20:54:27.949Z,100167.12
2019-02-08T20:59:30.691Z,100152.64
2019-02-08T21:04:33.161Z,100152.36
2019-02-08T21:09:35.673Z,100140.20
2019-02-08T21:14:38.129Z,100141.44
2019-02-08T21:19:40.587Z,100135.17
2019-02-08T21:24:43.425Z,100130.75
2019-02-08T21:29:45.635Z,100133.33
2019-02-08T21:34:48.093Z,100135.70
2019-02-08T21:39:50.566Z,100130.84
2019-02-08T21:44:53.064Z,100131.36
2019-02-08T21:49:55.699Z,100126.25
2019-02-08T21:54:58.189Z,100124.13
2019-02-08T22:00:00.651Z,100122.33
2019-02-08T22:05:03.117Z,100110.36
2019-02-08T22:10:05.575Z,100106.91
2019-02-08T22:15:08.045Z,100102.13
2019-02-08T22:20:16.110Z,100112.24
2019-02-08T22:25:18.606Z,100110.99
2019-02-08T22:30:23.970Z,100099.94
2019-02-08T22:35:26.413Z,100100.11
2019-02-08T22:40:28.858Z,100096.66
2019-02-08T22:45:31.298Z,100095.41
2019-02-08T22:50:33.738Z,100098.98
2019-02-08T22:55:36.180Z,100102.04
2019-02-08T23:00:41.422Z,100093.30
2019-02-08T23:05:45.516Z,100083.59
2019-02-08T23:10:46.290Z,100073.05
2019-02-08T23:15:48.748Z,100060.91
2019-02-08T23:20:51.192Z,100042.34
2019-02-08T23:25:53.638Z,100042.14
2019-02-08T23:30:56.110Z,100049.84
2019-02-08T23:35:58.532Z,100038.25
2019-02-08T23:41:00.970Z,100048.23
2019-02-08T23:46:03.417Z,100045.77
2019-02-08T23:51:05.852Z,100031.18
2019-02-08T23:56:08.322Z,100029.52
